Akure Airport

DNAK · Ondo, 尼日利亚

罗盘
风向 的 风向 260° Akure Airport 3/21
风: 6 kt, 2 beaufort

3 kt

5 kt
改变
0 ft 1.000 2.000 3.000 4.000 5.000
Cloud Cloud Cloud Cloud Cloud Cloud
BKN 1.100
METAR DNAK 250700Z 26006KT 9999 BKN011 27/25 Q1012

METAR Akure Airport - DNAK/AKR

Akure Airport是,尼日利亚中的中型机场。 该机场位于纬度7,24685和经度5,30104。 该机场有一条跑道: 3/21. 本场的ICAO机场代码为DNAK。 该机场的IATA代码为AKR。 机场在Kano FIR中。

该航空气象观测是针对Akure Airport在2024年4月25日 08:00, 当地时间进行的。

机场观察

风向为260°,速度为6 kt。

可见度为10 km 或者更多。

有碎云在1.100 ft的高度。 破损或更高的上限为1.100 ft。

温度和风寒是27 °C。 热指数为31。 露点为25 °C,相对湿度为89%。 海平面上的气压为1012 hPa (QNH)。

白天

今天,太阳从06:26升起,在18:47降落。 这适用于Akure Airport,世界夏令时可能有所不同。 当地时间与世界标准时间之间的时差为+1 小时。 夏令时目前正在进行中。

公司介绍

我们没有关于这个机场的公司信息。

体会

到Vliegles.nl去找飞行课程,跳伞和其他飞行体验。 浏览页面,了解Akure Airport附近所有可用的活动。 你也可以使用搜索功能来寻找你所在地附近的特定飞行课程、跳伞或其他飞行体验。

跑道

Id 标题 侧风 逆风 侧风 %
3/21 024°-204° 5 kt 3 kt 83 %

逆风成分最大的方向会被突出显示,并用于横风计算。 这并不一定意味着这个方向在使用。

乌云

1.100 ft BKN 碎云

温度 & 天气

温度 27 °C
露点 25 °C
相对湿度 89%
热度指数 31 °C
Kp-index 0 (0-9)

白天

日出
06:26
中午
12:36
日落
18:47 (9:43)

小工具

你想在你的网站上有一个关于Akure Airport的当前航空天气(METAR)的小部件吗?

显示HTML代码
报告变更